Time;durP1;ratioP1;P1;durP2;ratioP2;P2;SDS_P1;SDS_P2;PMS_P1;PMS_P2;Temp;Humidity;BMP_temperature;BMP_pressure;BME280_temperature;BME280_humidity;BME280_pressure;Samples;Min_cycle;Max_cycle;Signal;HPM_P1;HPM_P2
2020/12/22 01:34:17;;;;;;;33.97;20.10;;;;;;;-1.42;65.69;102003.64;1720642;78;21195;-95
2020/12/22 01:37:54;;;;;;;;;;;;;;;;;;;;;
2020/12/22 01:41:07;;;;;;;33.63;19.60;;;;;;;-1.69;66.74;102001.83;1654818;83;21337;-94
2020/12/22 01:44:26;;;;;;;31.17;19.47;;;;;;;-1.80;67.21;102004.44;1671502;82;21160;-93
2020/12/22 01:47:48;;;;;;;28.63;18.27;;;;;;;-1.82;67.41;101993.67;1624690;83;21160;-95
2020/12/22 01:51:03;;;;;;;38.70;22.70;;;;;;;-1.82;67.57;101998.44;1644582;85;21196;-91
2020/12/22 02:37:52;;;;;;;27.90;16.27;;;;;;;-2.31;69.47;101980.95;1701548;81;21279;-90
2020/12/22 02:45:09;;;;;;;24.47;14.50;;;;;;;-2.32;69.54;101988.84;1721417;82;21243;-94
2020/12/22 02:48:29;;;;;;;31.77;17.50;;;;;;;-2.31;69.59;101986.17;1662178;83;21322;-95
2020/12/22 02:51:17;;;;;;;35.63;16.60;;;;;;;-2.25;69.49;101985.91;1808462;79;23756;-94
2020/12/22 02:54:06;;;;;;;33.63;19.47;;;;;;;-2.30;69.33;101986.55;1815622;78;21411;-95
2020/12/22 02:56:47;;;;;;;35.30;19.73;;;;;;;-2.30;69.43;101988.33;1796845;78;21159;-95
2020/12/22 02:59:21;;;;;;;32.58;19.25;;;;;;;-2.25;69.44;101979.37;1806895;78;21124;-94
2020/12/22 03:01:53;;;;;;;27.17;17.23;;;;;;;-2.26;69.31;101984.23;1799955;77;21300;-95
2020/12/22 03:05:04;;;;;;;34.25;19.77;;;;;;;-2.27;69.41;101986.44;1797297;78;21239;-92
2020/12/22 03:07:45;;;;;;;32.33;17.77;;;;;;;-2.21;69.43;101988.78;1789745;79;21246;-92
2020/12/22 03:10:39;;;;;;;30.87;17.33;;;;;;;-2.20;69.54;101987.04;1765212;79;21283;-89
2020/12/22 03:20:49;;;;;;;27.73;15.17;;;;;;;-2.27;69.16;101970.77;1687889;81;21180;-95
2020/12/22 03:23:42;;;;;;;30.20;17.30;;;;;;;-2.37;69.48;101983.83;1705650;82;21337;-94
2020/12/22 03:26:14;;;;;;;32.17;17.07;;;;;;;-2.42;69.74;101974.87;1686958;84;21783;-94
2020/12/22 03:28:53;;;;;;;35.97;17.37;;;;;;;-2.34;69.60;101968.02;1777518;78;23703;-94
2020/12/22 03:31:23;;;;;;;27.47;15.93;;;;;;;-2.42;69.85;101970.95;1758308;80;21177;-92
2020/12/22 03:33:58;;;;;;;24.30;14.00;;;;;;;-2.38;69.62;101965.98;1735014;81;21195;-92
2020/12/22 03:36:28;;;;;;;24.43;15.23;;;;;;;-2.42;69.58;101970.95;1709148;81;21130;-93
2020/12/22 03:39:31;;;;;;;23.57;13.40;;;;;;;-2.35;69.69;101961.95;1818511;77;23115;-93
2020/12/22 03:42:02;;;;;;;27.00;13.77;;;;;;;-2.38;69.75;101971.67;1801116;78;21207;-93
2020/12/22 03:44:31;;;;;;;29.80;16.90;;;;;;;-2.35;69.62;101969.78;1811597;78;21397;-94
2020/12/22 03:46:58;;;;;;;31.10;17.47;;;;;;;-2.34;69.75;101975.84;1814492;77;21122;-92
2020/12/22 03:49:31;;;;;;;35.77;16.43;;;;;;;-2.38;69.81;101968.59;1810515;77;21239;-92
2020/12/22 03:52:44;;;;;;;24.60;16.10;;;;;;;-2.30;69.75;101958.28;1766930;77;21171;-95
2020/12/22 03:55:28;;;;;;;31.20;16.40;;;;;;;-2.29;70.00;101967.38;1818115;77;21561;-91
2020/12/22 03:57:59;;;;;;;34.73;19.30;;;;;;;-2.21;69.91;101961.81;1783032;77;21462;-93
2020/12/22 04:00:29;;;;;;;40.87;23.37;;;;;;;-2.21;69.85;101957.43;1802415;77;21115;-93
2020/12/22 04:02:59;;;;;;;32.67;17.87;;;;;;;-2.11;69.72;101960.52;1817726;78;21155;-92
2020/12/22 04:05:31;;;;;;;38.30;21.77;;;;;;;-2.09;69.71;101956.08;1804534;77;21112;-91
2020/12/22 04:08:02;;;;;;;37.70;22.63;;;;;;;-2.05;69.18;101965.94;1741412;81;21178;-92
2020/12/22 04:10:31;;;;;;;40.30;21.70;;;;;;;-3.56;69.23;101708.70;1735759;81;21238;-93
2020/12/22 04:13:01;;;;;;;34.73;21.10;;;;;;;-2.32;69.22;101913.95;1723151;81;21183;-92
2020/12/22 04:15:39;;;;;;;43.13;22.03;;;;;;;-2.06;69.43;101953.31;1730335;81;21252;-91
2020/12/22 04:18:23;;;;;;;43.47;21.93;;;;;;;-2.03;69.52;101949.73;1813186;77;22426;-90
2020/12/22 04:20:53;;;;;;;35.43;19.93;;;;;;;-2.08;69.57;101941.23;1734548;77;21306;-91
2020/12/22 04:23:21;;;;;;;37.53;19.90;;;;;;;-2.04;69.70;101947.55;1671621;83;21192;-89
2020/12/22 04:25:52;;;;;;;32.93;18.37;;;;;;;-2.05;69.64;101950.27;1677180;82;21208;-94
2020/12/22 04:28:22;;;;;;;41.53;22.90;;;;;;;-2.02;69.45;101952.25;1695406;82;21318;-94
2020/12/22 04:30:51;;;;;;;40.07;21.40;;;;;;;-2.02;69.60;101956.17;1690090;82;21869;-92
2020/12/22 04:33:22;;;;;;;40.67;20.33;;;;;;;-2.00;69.55;101949.14;1682636;82;21179;-93
2020/12/22 04:35:55;;;;;;;39.77;23.10;;;;;;;-1.96;69.40;101954.62;1691421;82;21129;-91
2020/12/22 04:38:25;;;;;;;44.30;24.07;;;;;;;-1.96;69.41;101956.36;1667358;83;21183;-96
2020/12/22 04:58:12;;;;;;;;;;;;;;;;;;;;;
2020/12/22 05:01:08;;;;;;;31.67;19.00;;;;;;;-2.11;70.18;101934.83;1716450;83;21126;-94
2020/12/22 05:04:14;;;;;;;37.50;19.60;;;;;;;-2.03;70.25;101935.36;1704356;82;21180;-96
2020/12/22 05:10:39;;;;;;;;;;;;;;;;;;;;;
2020/12/22 05:34:05;;;;;;;27.47;16.53;;;;;;;-1.83;70.05;101920.95;1717305;78;21190;-94
2020/12/22 05:50:26;;;;;;;12.90;8.23;;;;;;;-1.73;69.91;101923.12;1666498;82;21199;-96
2020/12/22 06:08:09;;;;;;;13.23;8.33;;;;;;;-1.86;70.80;101921.54;1566255;85;22635;-92
2020/12/22 06:11:52;;;;;;;11.77;7.60;;;;;;;-1.81;71.06;101915.19;1803363;77;23066;-94
2020/12/22 06:34:59;;;;;;;13.70;8.90;;;;;;;-1.83;71.28;101900.03;1706604;78;21168;-96
2020/12/22 06:38:17;;;;;;;13.67;8.83;;;;;;;-1.79;71.24;101912.05;1665496;84;21196;-96
2020/12/22 06:41:33;;;;;;;16.17;9.40;;;;;;;-1.88;71.51;101906.39;1625724;86;21482;-95
2020/12/22 06:44:49;;;;;;;;;;;;;;;;;;;;;
2020/12/22 06:48:03;;;;;;;18.03;9.83;;;;;;;-1.91;71.67;101906.05;1637940;85;21180;-95
2020/12/22 06:51:31;;;;;;;13.60;8.73;;;;;;;-1.80;71.80;101897.73;1881645;75;26464;-85
2020/12/22 06:56:56;;;;;;;12.43;8.23;;;;;;;-1.79;71.85;101895.05;1813035;77;23059;-85
2020/12/22 06:59:47;;;;;;;14.23;9.40;;;;;;;-1.83;71.94;101901.78;1726868;81;21193;-86
2020/12/22 07:02:34;;;;;;;9.53;7.10;;;;;;;-1.78;71.68;101891.97;1752787;81;21125;-84
2020/12/22 07:05:01;;;;;;;12.87;8.00;;;;;;;-1.78;71.82;101894.59;1742497;81;21177;-84
2020/12/22 07:07:56;;;;;;;12.23;8.97;;;;;;;-1.76;71.68;101896.20;1737457;82;21190;-83
2020/12/22 07:10:23;;;;;;;14.23;9.13;;;;;;;-1.74;71.67;101889.59;1705231;82;21439;-88
2020/12/22 07:12:55;;;;;;;15.13;9.13;;;;;;;-1.72;71.72;101882.53;1707961;82;21203;-85
2020/12/22 07:15:32;;;;;;;13.50;8.83;;;;;;;-1.73;71.64;101882.16;1710035;82;21160;-85
2020/12/22 07:18:15;;;;;;;13.57;9.20;;;;;;;-1.66;71.55;101878.78;1736429;81;21151;-87
2020/12/22 07:20:44;;;;;;;19.67;11.47;;;;;;;-1.64;71.52;101875.20;1711170;82;21159;-88
2020/12/22 07:23:14;;;;;;;12.60;8.97;;;;;;;-1.62;71.39;101873.79;1729879;81;21752;-83
2020/12/22 07:25:45;;;;;;;16.07;10.33;;;;;;;-1.56;71.39;101866.98;1705929;82;21188;-85
2020/12/22 07:28:19;;;;;;;14.37;10.27;;;;;;;-1.53;71.25;101865.52;1742900;79;21180;-95
2020/12/22 07:31:18;;;;;;;;;;;;;;;;;;;;;
2020/12/22 07:44:44;;;;;;;10.80;7.17;;;;;;;-1.58;71.34;101851.84;1772790;78;23078;-95
2020/12/22 07:48:27;;;;;;;10.00;7.50;;;;;;;-1.61;71.50;101853.27;1752289;81;21167;-96
2020/12/22 07:51:52;;;;;;;14.43;9.63;;;;;;;-1.52;71.34;101855.92;1629535;87;21175;-96
2020/12/22 08:18:43;;;;;;;;;;;;;;;;;;;;;
2020/12/22 08:21:59;;;;;;;11.27;8.83;;;;;;;-1.15;70.65;101840.58;1605976;87;21353;-96
2020/12/22 08:25:45;;;;;;;15.30;9.28;;;;;;;-1.09;70.40;101832.89;1596212;89;21276;-96
2020/12/22 08:29:38;;;;;;;;;;;;;;;;;;;;;
2020/12/22 08:39:50;;;;;;;14.60;8.87;;;;;;;-1.06;70.57;101818.35;1736336;82;21181;-93
2020/12/22 09:11:20;;;;;;;16.33;11.43;;;;;;;-1.04;71.00;101781.17;1759271;78;21180;-86
2020/12/22 09:14:32;;;;;;;21.37;13.53;;;;;;;-1.12;71.28;101775.48;1720459;80;21343;-96
2020/12/22 09:31:50;;;;;;;31.17;16.10;;;;;;;-1.11;72.00;101765.39;1682937;81;21304;-96
2020/12/22 09:35:21;;;;;;;25.67;15.77;;;;;;;-1.10;72.07;101772.33;1671581;79;21125;-95
2020/12/22 09:38:40;;;;;;;24.73;14.57;;;;;;;-1.07;72.10;101766.95;1626845;85;21268;-95
2020/12/22 09:42:16;;;;;;;;;;;;;;;;;;;;;
2020/12/22 09:45:23;;;;;;;36.90;16.83;;;;;;;-1.04;72.21;101747.98;1711359;80;21195;-94
2020/12/22 09:48:51;;;;;;;29.48;18.30;;;;;;;-1.04;72.32;101752.38;1632284;83;21173;-95
2020/12/22 10:01:40;;;;;;;26.60;14.87;;;;;;;-0.99;72.52;101730.75;1659975;81;21147;-93
2020/12/22 10:04:45;;;;;;;32.07;16.63;;;;;;;-0.94;72.37;101724.83;1650278;84;21202;-95
2020/12/22 10:08:08;;;;;;;32.70;19.47;;;;;;;-0.93;72.05;101722.58;1625939;83;21328;-95
2020/12/22 10:11:23;;;;;;;32.90;20.00;;;;;;;-0.96;72.10;101722.75;1645282;84;21262;-89
2020/12/22 10:14:19;;;;;;;35.10;21.50;;;;;;;-0.95;72.16;101717.05;1628814;86;22573;-87
2020/12/22 10:17:28;;;;;;;29.93;19.03;;;;;;;-0.87;72.11;101713.08;1819737;76;22974;-86
2020/12/22 10:19:59;;;;;;;36.17;22.00;;;;;;;-0.90;71.90;101709.81;1728160;80;21258;-89
2020/12/22 10:22:31;;;;;;;35.80;19.90;;;;;;;-0.88;71.93;101714.50;1745570;80;21199;-90
2020/12/22 10:25:00;;;;;;;35.87;21.70;;;;;;;-0.86;71.79;101707.41;1769664;79;21290;-93
2020/12/22 10:27:32;;;;;;;33.67;18.90;;;;;;;-0.85;71.85;101704.72;1750081;79;21161;-91
2020/12/22 10:30:03;;;;;;;41.57;23.10;;;;;;;-0.90;71.98;101704.10;1762471;80;21180;-94
2020/12/22 10:32:37;;;;;;;30.20;19.47;;;;;;;-0.87;71.89;101696.06;1784032;78;21302;-91
2020/12/22 10:35:06;;;;;;;42.60;21.07;;;;;;;-0.84;71.90;101696.39;1788191;77;21116;-92
2020/12/22 10:37:38;;;;;;;37.13;23.60;;;;;;;-0.79;71.81;101687.36;1765825;78;21157;-92
2020/12/22 10:40:07;;;;;;;47.23;26.63;;;;;;;-0.74;71.59;101676.63;1765176;78;21312;-91
2020/12/22 10:42:35;;;;;;;46.00;26.20;;;;;;;-0.70;71.47;101674.22;1748475;79;21589;-93
2020/12/22 10:45:04;;;;;;;44.73;24.17;;;;;;;-0.75;71.36;101673.65;1769032;77;21174;-91
2020/12/22 10:47:33;;;;;;;38.97;22.90;;;;;;;-0.73;71.36;101672.27;1735577;78;21294;-89
2020/12/22 10:50:21;;;;;;;60.37;29.80;;;;;;;-0.72;71.39;101670.84;1752417;80;21155;-90
2020/12/22 10:52:53;;;;;;;40.57;24.03;;;;;;;-1.04;71.19;101617.60;1741024;81;21219;-89
2020/12/22 10:55:52;;;;;;;53.67;28.57;;;;;;;-0.68;71.29;101657.99;1806950;77;22875;-89
2020/12/22 10:58:19;;;;;;;48.23;27.03;;;;;;;-0.67;71.02;101652.28;1788452;78;21191;-89
2020/12/22 11:00:49;;;;;;;51.47;29.70;;;;;;;-0.65;70.80;101654.35;1789333;78;21538;-90
2020/12/22 11:03:54;;;;;;;59.07;30.27;;;;;;;-0.60;70.78;101644.01;1807579;79;23164;-92
2020/12/22 11:09:25;;;;;;;47.53;27.93;;;;;;;-0.52;70.75;101643.59;1685207;83;21244;-92
2020/12/22 11:11:58;;;;;;;46.97;25.73;;;;;;;-0.46;70.41;101638.47;1668815;79;21188;-92
2020/12/22 11:14:26;;;;;;;54.43;26.00;;;;;;;-0.42;69.95;101645.22;1689618;84;21198;-94
2020/12/22 11:16:54;;;;;;;47.30;25.97;;;;;;;-0.41;69.86;101644.31;1666601;84;21195;-90
2020/12/22 11:19:29;;;;;;;43.87;25.70;;;;;;;-0.42;69.91;101643.91;1676917;79;21179;-88
2020/12/22 11:21:57;;;;;;;40.17;22.83;;;;;;;-0.44;69.86;101643.16;1687134;81;21206;-92
2020/12/22 11:24:27;;;;;;;42.80;25.63;;;;;;;-0.48;70.02;101642.95;1691841;82;21123;-92
2020/12/22 11:26:55;;;;;;;41.70;24.07;;;;;;;-0.50;70.02;101642.19;1690674;82;21190;-92
2020/12/22 11:29:27;;;;;;;42.87;24.70;;;;;;;-0.55;70.05;101640.28;1695440;81;21199;-89
2020/12/22 11:32:29;;;;;;;39.33;23.90;;;;;;;-0.54;70.30;101635.44;1819822;77;23109;-88
2020/12/22 11:35:05;;;;;;;37.10;19.87;;;;;;;-0.54;70.45;101634.13;1745221;81;21234;-92
2020/12/22 11:37:35;;;;;;;40.43;21.50;;;;;;;-0.52;70.46;101631.80;1746467;81;21239;-93
2020/12/22 11:40:05;;;;;;;38.40;19.03;;;;;;;-0.48;70.06;101631.16;1772368;80;21780;-91
2020/12/22 11:42:33;;;;;;;48.97;25.63;;;;;;;-0.47;70.12;101630.22;1775794;79;21184;-96
2020/12/22 11:45:24;;;;;;;45.57;25.60;;;;;;;-0.48;70.03;101629.85;1767427;80;21191;-93
2020/12/22 11:47:56;;;;;;;48.20;26.13;;;;;;;-0.54;70.37;101623.18;1753489;80;21139;-92
2020/12/22 11:50:28;;;;;;;48.97;22.33;;;;;;;-0.56;70.20;101618.97;1775035;79;21281;-94
2020/12/22 11:52:55;;;;;;;49.17;26.63;;;;;;;-0.67;70.60;101621.70;1783146;80;21191;-93
2020/12/22 11:55:38;;;;;;;51.07;29.03;;;;;;;-0.70;70.68;101621.85;1737467;81;21250;-93
2020/12/22 11:58:07;;;;;;;41.90;24.20;;;;;;;-0.70;70.92;101618.40;1748230;80;21148;-91
2020/12/22 12:00:54;;;;;;;51.37;27.47;;;;;;;-0.62;70.83;101608.37;1746871;81;21146;-95
2020/12/22 12:03:47;;;;;;;54.30;29.57;;;;;;;-0.60;70.87;101602.11;1712024;80;21291;-92
2020/12/22 12:06:48;;;;;;;56.87;28.50;;;;;;;-0.55;70.68;101603.62;1714795;79;21119;-95
2020/12/22 12:09:15;;;;;;;49.90;24.77;;;;;;;-0.54;70.63;101606.16;1724971;81;21416;-93
2020/12/22 12:11:47;;;;;;;48.67;27.90;;;;;;;-0.57;70.42;101598.46;1686548;83;21270;-95
2020/12/22 12:14:17;;;;;;;56.27;29.23;;;;;;;-0.55;70.22;101591.83;1694718;80;21383;-91
2020/12/22 12:16:49;;;;;;;45.80;24.90;;;;;;;-0.55;70.33;101597.07;1698639;83;21244;-94
2020/12/22 12:19:19;;;;;;;44.07;25.33;;;;;;;-0.56;70.10;101593.61;1705503;82;21234;-92
2020/12/22 12:21:46;;;;;;;48.43;28.80;;;;;;;-0.60;70.30;101589.01;1688212;83;21187;-90
2020/12/22 12:24:13;;;;;;;48.63;24.77;;;;;;;-0.63;70.46;101581.78;1714306;82;21312;-89
2020/12/22 12:26:43;;;;;;;47.30;27.67;;;;;;;-0.57;70.52;101581.44;1695224;83;21286;-90
2020/12/22 12:29:15;;;;;;;59.13;28.03;;;;;;;-0.54;70.51;101586.98;1683775;83;21953;-92
2020/12/22 12:31:47;;;;;;;45.80;24.87;;;;;;;-0.50;70.50;101584.09;1700294;82;21409;-94
2020/12/22 12:34:15;;;;;;;46.70;26.77;;;;;;;-0.44;70.29;101587.67;1694870;82;21199;-95
2020/12/22 12:36:49;;;;;;;46.00;23.03;;;;;;;-0.38;69.93;101573.86;1692206;80;21331;-92
2020/12/22 12:39:17;;;;;;;51.20;27.43;;;;;;;-0.45;69.73;101582.55;1686454;83;21353;-94
2020/12/22 12:41:48;;;;;;;45.30;26.40;;;;;;;-0.51;69.92;101582.42;1676772;83;21171;-95
2020/12/22 12:44:24;;;;;;;41.47;24.13;;;;;;;-0.54;70.14;101573.41;1700912;82;21313;-95
2020/12/22 12:46:56;;;;;;;40.73;22.37;;;;;;;-0.49;70.17;101577.08;1670669;83;21359;-93
2020/12/22 12:49:26;;;;;;;40.50;24.83;;;;;;;-0.55;70.29;101564.33;1694479;83;21234;-93
2020/12/22 12:51:55;;;;;;;31.10;18.23;;;;;;;-0.52;70.13;101566.79;1720739;82;21215;-92
2020/12/22 12:54:23;;;;;;;34.97;19.63;;;;;;;-0.60;70.28;101575.91;1712132;82;21230;-92
2020/12/22 12:56:52;;;;;;;32.87;18.10;;;;;;;-0.59;70.28;101570.20;1713637;82;21339;-92
2020/12/22 12:59:20;;;;;;;34.10;18.77;;;;;;;-0.67;70.37;101565.40;1694569;82;21164;-91
2020/12/22 13:01:48;;;;;;;28.20;16.20;;;;;;;-0.70;70.38;101566.03;1709488;82;21731;-92
2020/12/22 13:04:18;;;;;;;32.93;20.40;;;;;;;-0.72;70.55;101566.11;1713895;82;21221;-90
2020/12/22 13:06:52;;;;;;;33.83;19.53;;;;;;;-0.70;70.38;101553.77;1676174;81;21146;-93
2020/12/22 13:09:26;;;;;;;36.53;20.23;;;;;;;-0.64;70.32;101558.69;1682474;84;21314;-89
2020/12/22 13:12:21;;;;;;;29.03;18.90;;;;;;;-0.64;70.36;101558.69;1656310;83;21244;-90
2020/12/22 13:15:04;;;;;;;34.13;19.77;;;;;;;-0.65;70.44;101556.98;1626389;85;21580;-90
2020/12/22 13:17:32;;;;;;;31.27;17.87;;;;;;;-0.60;70.30;101558.89;1628219;85;21311;-90
2020/12/22 13:20:00;;;;;;;36.40;20.30;;;;;;;-0.53;70.23;101555.92;1671027;84;21368;-90
2020/12/22 13:22:29;;;;;;;37.83;21.93;;;;;;;-0.50;69.79;101562.30;1670537;84;22270;-88
2020/12/22 13:26:44;;;;;;;39.13;19.77;;;;;;;-0.46;69.82;101553.34;1786692;78;22861;-87
2020/12/22 13:29:12;;;;;;;39.00;21.67;;;;;;;-0.55;69.82;101565.17;1783504;79;21278;-90
2020/12/22 13:31:52;;;;;;;34.63;21.63;;;;;;;-0.52;69.63;101551.08;1782449;80;21270;-88
2020/12/22 13:34:23;;;;;;;38.03;23.13;;;;;;;-0.54;69.79;101551.63;1780290;79;21155;-89
2020/12/22 13:36:54;;;;;;;45.57;24.03;;;;;;;-0.48;69.73;101550.80;1745221;80;21081;-89
2020/12/22 13:39:23;;;;;;;36.43;24.23;;;;;;;-0.49;69.64;101552.19;1730914;81;21182;-90
2020/12/22 13:41:51;;;;;;;33.73;19.93;;;;;;;-0.45;69.47;101549.80;1730453;81;21166;-90
2020/12/22 13:44:19;;;;;;;39.60;23.57;;;;;;;-0.42;69.47;101549.61;1733983;81;21170;-92
2020/12/22 13:46:47;;;;;;;32.77;21.27;;;;;;;-0.42;69.41;101545.67;1743356;81;21159;-87
2020/12/22 13:49:15;;;;;;;44.00;21.00;;;;;;;-0.42;69.16;101544.37;1730864;81;21336;-90
2020/12/22 13:51:42;;;;;;;41.87;25.53;;;;;;;-0.44;69.35;101545.76;1707703;81;21163;-90
2020/12/22 13:54:10;;;;;;;36.30;19.43;;;;;;;-0.43;69.18;101553.17;1736786;81;21353;-90
2020/12/22 13:56:40;;;;;;;41.83;23.90;;;;;;;-0.50;69.39;101542.66;1735201;81;22195;-88
2020/12/22 13:59:14;;;;;;;38.90;24.33;;;;;;;-0.49;69.42;101534.72;1743453;81;21329;-90
2020/12/22 14:01:41;;;;;;;37.30;23.20;;;;;;;-0.52;69.52;101545.36;1736205;81;21181;-87
2020/12/22 14:04:08;;;;;;;36.30;22.77;;;;;;;-0.47;69.18;101538.53;1745885;81;21155;-89
2020/12/22 14:06:35;;;;;;;39.53;22.53;;;;;;;-0.51;69.32;101539.65;1740182;80;21133;-87
2020/12/22 14:09:06;;;;;;;41.17;19.47;;;;;;;-0.53;69.23;101539.73;1740309;81;21154;-88
2020/12/22 14:11:33;;;;;;;30.73;19.33;;;;;;;-0.60;69.06;101527.47;1738654;81;21594;-89
2020/12/22 14:14:00;;;;;;;37.33;21.30;;;;;;;-0.57;69.19;101526.44;1734191;81;21190;-89
2020/12/22 14:16:27;;;;;;;34.20;20.17;;;;;;;-0.59;69.12;101531.75;1737901;81;21301;-87
2020/12/22 14:18:55;;;;;;;33.63;19.00;;;;;;;-0.65;68.87;101533.89;1737767;79;21184;-89
2020/12/22 14:21:22;;;;;;;30.73;18.33;;;;;;;-0.61;68.90;101532.31;1738294;81;21171;-88
2020/12/22 14:23:50;;;;;;;41.50;22.30;;;;;;;-0.65;68.72;101532.11;1741418;81;21195;-86
2020/12/22 14:26:17;;;;;;;29.67;19.33;;;;;;;-0.64;68.88;101527.27;1731365;81;21361;-87
2020/12/22 14:28:44;;;;;;;37.20;20.70;;;;;;;-0.67;69.04;101529.21;1703463;81;21313;-88
2020/12/22 14:31:13;;;;;;;37.93;21.10;;;;;;;-0.64;69.26;101533.81;1701089;83;21171;-90
2020/12/22 14:33:42;;;;;;;35.17;21.57;;;;;;;-0.62;69.23;101533.26;1662194;85;21213;-90
2020/12/22 14:36:23;;;;;;;39.07;20.60;;;;;;;-0.54;69.39;101526.75;1783016;79;22858;-88
2020/12/22 14:38:50;;;;;;;38.47;21.87;;;;;;;-0.61;69.05;101531.47;1754943;81;21158;-93
2020/12/22 14:41:17;;;;;;;40.33;21.80;;;;;;;-0.55;68.92;101518.02;1752152;81;22466;-89
2020/12/22 14:43:45;;;;;;;40.63;23.90;;;;;;;-0.60;69.12;101522.70;1725031;82;21155;-89
2020/12/22 14:46:14;;;;;;;42.67;23.47;;;;;;;-0.66;69.18;101517.34;1726153;82;21411;-87
2020/12/22 14:48:44;;;;;;;43.07;22.87;;;;;;;-0.73;69.33;101496.83;1715884;82;21226;-88
2020/12/22 14:51:12;;;;;;;38.40;22.83;;;;;;;-0.67;69.16;101500.41;1700595;83;21167;-89
2020/12/22 14:53:39;;;;;;;41.73;21.87;;;;;;;-0.71;69.26;101510.20;1716598;82;21206;-90
2020/12/22 14:56:15;;;;;;;35.10;20.43;;;;;;;-0.77;69.30;101501.84;1726867;82;21293;-89
2020/12/22 14:58:44;;;;;;;39.77;20.23;;;;;;;-0.73;69.24;101493.74;1691033;82;21175;-89
2020/12/22 15:01:12;;;;;;;41.40;23.47;;;;;;;-0.76;69.20;101495.21;1717401;82;21179;-89
2020/12/22 15:03:42;;;;;;;40.67;23.67;;;;;;;-0.69;69.11;101503.11;1688848;83;21195;-90
2020/12/22 15:06:31;;;;;;;37.87;21.77;;;;;;;-0.68;69.30;101493.47;1707813;82;21343;-89
2020/12/22 15:09:12;;;;;;;41.97;23.73;;;;;;;-0.71;69.31;101489.73;1728258;82;21196;-85
2020/12/22 15:11:46;;;;;;;42.40;24.67;;;;;;;-0.70;69.29;101489.62;1716083;82;21309;-89
2020/12/22 15:14:13;;;;;;;43.43;24.47;;;;;;;-0.81;69.78;101486.77;1731958;81;21179;-92
2020/12/22 15:16:56;;;;;;;44.37;25.30;;;;;;;-0.75;69.71;101483.83;1696849;83;21325;-90
2020/12/22 15:20:05;;;;;;;38.83;23.37;;;;;;;-0.72;69.84;101467.92;1778810;78;25293;-89
2020/12/22 15:22:34;;;;;;;42.77;24.17;;;;;;;-0.78;69.89;101466.97;1694232;83;21344;-87
2020/12/22 15:25:38;;;;;;;43.37;21.67;;;;;;;-0.70;69.71;101462.12;1804705;77;23086;-88
2020/12/22 15:28:15;;;;;;;45.93;22.67;;;;;;;-0.80;69.70;101467.05;1816224;78;21603;-87
2020/12/22 15:30:47;;;;;;;42.27;23.97;;;;;;;-0.80;69.67;101459.67;1783364;78;21756;-88
2020/12/22 15:33:24;;;;;;;45.20;23.77;;;;;;;-0.83;69.92;101459.39;1780402;80;21589;-85
2020/12/22 15:35:53;;;;;;;50.40;22.90;;;;;;;-0.80;69.92;101463.59;1700462;83;21180;-88
2020/12/22 15:38:32;;;;;;;44.43;25.50;;;;;;;-0.84;69.55;101466.02;1683887;83;21216;-87
2020/12/22 15:41:09;;;;;;;48.73;22.10;;;;;;;-0.83;69.82;101464.63;1701545;83;21179;-87
2020/12/22 15:44:09;;;;;;;;;;;;;;;;;;;;;
2020/12/22 15:47:04;;;;;;;48.73;23.50;;;;;;;-0.84;69.92;101435.44;1815774;77;26725;-87
2020/12/22 15:49:38;;;;;;;46.43;24.50;;;;;;;-0.86;69.83;101452.17;1809845;77;21203;-88
2020/12/22 15:52:27;;;;;;;47.93;24.67;;;;;;;-0.85;69.87;101442.06;1790628;77;21208;-84
2020/12/22 15:55:03;;;;;;;49.40;24.97;;;;;;;-0.83;69.76;101438.89;1783111;78;21270;-87
2020/12/22 15:57:51;;;;;;;;;;;;;;;;;;;;;
2020/12/22 16:04:06;;;;;;;;;;;;;;;;;;;;;
2020/12/22 16:06:42;;;;;;;50.87;27.37;;;;;;;-0.75;70.08;101434.08;1806518;77;24203;-87
2020/12/22 16:09:48;;;;;;;;;;;;;;;;;;;;;
2020/12/22 16:12:37;;;;;;;;;;;;;;;;;;;;;
2020/12/22 16:15:12;;;;;;;42.17;21.27;;;;;;;-0.74;69.96;101435.75;1760491;80;21127;-91
2020/12/22 16:17:50;;;;;;;;;;;;;;;-0.74;69.88;101436.22;1750756;81;21168;-90
2020/12/22 16:20:24;;;;;;;47.47;26.63;;;;;;;-0.80;69.98;101426.47;1762671;81;20275;-89
2020/12/22 16:23:00;;;;;;;47.23;23.18;;;;;;;-0.86;70.11;101424.69;1667987;83;21173;-87
2020/12/22 16:26:17;;;;;;;42.50;22.70;;;;;;;-0.92;70.70;101404.94;1803738;78;27869;-89
2020/12/22 16:29:19;;;;;;;36.47;19.63;;;;;;;-0.86;70.33;101413.74;1828301;77;23137;-87
2020/12/22 16:32:01;;;;;;;;;;;;;;;;;;;;;
2020/12/22 16:34:22;;;;;;;44.13;23.20;;;;;;;-0.92;70.19;101406.69;1811458;78;21152;-91
2020/12/22 16:36:57;;;;;;;37.37;19.90;;;;;;;-0.89;70.17;101405.22;1738587;78;21127;-94
2020/12/22 16:39:31;;;;;;;43.47;21.60;;;;;;;-0.90;70.28;101408.78;1719380;82;21292;-92
2020/12/22 16:42:18;;;;;;;37.47;20.43;;;;;;;-0.89;70.20;101404.75;1686658;81;21211;-88
2020/12/22 16:45:01;;;;;;;33.57;17.33;;;;;;;-0.86;70.01;101402.44;1696362;83;21608;-89
2020/12/22 16:47:32;;;;;;;36.53;20.00;;;;;;;-0.88;70.21;101403.00;1673417;82;21261;-89
2020/12/22 16:50:03;;;;;;;38.63;18.27;;;;;;;-0.83;70.15;101406.17;1673237;83;21244;-89
2020/12/22 16:52:34;;;;;;;34.77;17.00;;;;;;;-0.89;70.29;101394.28;1698958;81;21297;-90
2020/12/22 16:55:35;;;;;;;34.93;16.80;;;;;;;-0.83;70.21;101400.94;1692444;82;21217;-93
2020/12/22 16:58:43;;;;;;;33.37;19.23;;;;;;;-0.86;70.26;101402.44;1716133;83;21119;-92
2020/12/22 17:01:37;;;;;;;43.53;19.47;;;;;;;-0.89;70.32;101399.51;1699983;84;21225;-93
2020/12/22 17:04:39;;;;;;;37.85;25.68;;;;;;;-0.96;70.86;101386.87;1712829;80;28441;-90
2020/12/22 17:07:29;;;;;;;33.60;17.93;;;;;;;-0.81;70.57;101389.46;1718235;82;21102;-90
2020/12/22 17:10:01;;;;;;;34.53;17.67;;;;;;;-0.69;70.01;101380.04;1713004;82;21210;-88
2020/12/22 17:12:50;;;;;;;;;;;;;;;;;;;;;
2020/12/22 17:15:30;;;;;;;;;;;;;;;-0.72;70.12;101385.92;1718408;82;21358;-86
2020/12/22 17:18:15;;;;;;;;;;;;;;;;;;;;;
2020/12/22 17:21:10;;;;;;;38.20;19.27;;;;;;;-0.74;70.37;101362.44;1823512;77;23457;-86
2020/12/22 17:23:40;;;;;;;31.63;21.23;;;;;;;-0.85;70.66;101368.33;1807636;78;21174;-88
2020/12/22 17:26:08;;;;;;;41.57;21.50;;;;;;;-0.88;70.98;101363.73;1810209;78;21201;-88
2020/12/22 17:28:35;;;;;;;35.30;18.50;;;;;;;-0.88;71.08;101376.34;1812437;78;21164;-90
2020/12/22 17:31:03;;;;;;;38.73;20.17;;;;;;;-0.94;71.18;101370.16;1759187;80;21231;-89
2020/12/22 17:33:31;;;;;;;34.07;19.97;;;;;;;-0.97;71.16;101362.95;1717598;81;21223;-87
2020/12/22 17:35:59;;;;;;;31.23;17.30;;;;;;;-1.03;71.57;101353.68;1748584;80;21107;-92
2020/12/22 17:38:34;;;;;;;27.77;15.77;;;;;;;-1.04;71.60;101351.50;1748622;81;22321;-87
2020/12/22 17:41:07;;;;;;;32.67;19.00;;;;;;;-1.00;71.44;101354.80;1759231;81;21247;-90
2020/12/22 17:43:38;;;;;;;31.63;16.33;;;;;;;-1.01;71.49;101350.03;1724113;81;21275;-85
2020/12/22 17:46:11;;;;;;;24.90;14.23;;;;;;;-1.04;71.48;101348.05;1717276;82;21229;-88
2020/12/22 17:48:39;;;;;;;27.20;15.63;;;;;;;-1.07;71.53;101352.17;1718900;80;21155;-90
2020/12/22 17:51:11;;;;;;;28.43;14.63;;;;;;;-1.05;71.49;101339.38;1743258;81;21167;-85
2020/12/22 17:53:39;;;;;;;22.17;14.50;;;;;;;-1.06;71.48;101340.28;1727983;81;21231;-87
2020/12/22 17:56:16;;;;;;;28.10;16.00;;;;;;;-1.06;71.52;101340.28;1702324;82;21213;-86
2020/12/22 17:58:47;;;;;;;29.80;16.40;;;;;;;-1.03;71.33;101337.50;1734502;81;21693;-87
2020/12/22 18:01:21;;;;;;;23.33;12.13;;;;;;;-1.00;71.25;101343.02;1736158;81;22344;-86
2020/12/22 18:03:54;;;;;;;24.97;14.13;;;;;;;-1.07;71.03;101330.77;1702603;82;21391;-90
2020/12/22 18:07:08;;;;;;;23.17;13.20;;;;;;;-1.03;71.02;101334.05;1695644;83;21157;-91
2020/12/22 18:09:39;;;;;;;25.20;13.53;;;;;;;-1.13;71.15;101342.04;1700409;83;21269;-90
2020/12/22 18:12:06;;;;;;;21.07;13.10;;;;;;;-1.16;71.09;101335.22;1697431;84;21382;-89
2020/12/22 18:14:34;;;;;;;19.70;10.47;;;;;;;-1.21;71.14;101324.17;1671518;83;21219;-88
2020/12/22 18:17:05;;;;;;;23.50;14.80;;;;;;;-1.22;71.15;101322.50;1673090;83;21212;-86
2020/12/22 18:19:35;;;;;;;19.53;11.77;;;;;;;-1.23;71.27;101324.72;1721567;83;21722;-87
2020/12/22 18:22:02;;;;;;;24.00;12.87;;;;;;;-1.29;71.57;101327.70;1712985;81;21259;-91